METAR Data
IDs: Format: Raw Decoded Include TAF

Data at: 0129 UTC 20 Jul 2019

METAR for:KCCY (Charles City/NE Iowa, IA, US)
Text:KCCY 200115Z AUTO 20008KT 10SM CLR 30/27 A2970 RMK AO2
Temperature: 30.0°C ( 86°F)
Dewpoint: 27.0°C ( 81°F) [RH = 84%]
Pressure (altimeter):29.70 inches Hg (1005.8 mb)
Winds:from the SSW (200 degrees) at 9 MPH (8 knots; 4.1 m/s)
Visibility:10 or more sm (16+ km)
Ceiling:at least 12,000 feet AGL
Clouds:sky clear below 12,000 feet AGL
QC Flag:automated observation with no human augmentation